createdAt,value
2023-10-12T00:01:52.785Z,56.74
2023-10-12T00:04:19.140Z,56.84
2023-10-12T00:06:45.506Z,57.13
2023-10-12T00:09:11.729Z,56.83
2023-10-12T00:11:37.896Z,57.40
2023-10-12T00:14:05.113Z,56.94
2023-10-12T00:16:31.327Z,57.17
2023-10-12T00:18:57.545Z,56.44
2023-10-12T00:21:23.732Z,56.66
2023-10-12T00:23:49.911Z,56.07
2023-10-12T00:26:16.169Z,56.96
2023-10-12T00:28:42.340Z,56.55
2023-10-12T00:31:08.571Z,56.28
2023-10-12T00:33:35.792Z,57.00
2023-10-12T00:36:02.253Z,56.52
2023-10-12T00:38:28.598Z,56.86
2023-10-12T00:40:54.756Z,56.90
2023-10-12T00:43:20.923Z,56.98
2023-10-12T00:45:47.193Z,57.10
2023-10-12T00:48:13.462Z,57.89
2023-10-12T00:50:39.671Z,58.26
2023-10-12T00:53:05.931Z,58.52
2023-10-12T00:55:32.084Z,59.43
2023-10-12T00:57:58.259Z,60.06
2023-10-12T01:00:24.800Z,61.21
2023-10-12T01:02:51.017Z,61.87
2023-10-12T01:05:17.294Z,62.37
2023-10-12T01:07:43.476Z,63.08
2023-10-12T01:10:09.641Z,63.73
2023-10-12T01:12:35.913Z,64.06
2023-10-12T01:15:02.126Z,63.08
2023-10-12T01:17:28.352Z,63.53
2023-10-12T01:19:55.539Z,63.64
2023-10-12T01:22:21.734Z,63.89
2023-10-12T01:24:47.932Z,63.67
2023-10-12T01:27:14.146Z,63.76
2023-10-12T01:29:40.296Z,63.75
2023-10-12T01:32:06.470Z,63.55
2023-10-12T01:34:32.732Z,63.53
2023-10-12T01:36:58.924Z,63.46
2023-10-12T01:39:25.168Z,63.24
2023-10-12T01:41:51.342Z,63.36
2023-10-12T01:44:17.690Z,62.80
2023-10-12T01:46:44.051Z,62.45
2023-10-12T01:49:10.334Z,62.33
2023-10-12T01:51:36.602Z,61.80
2023-10-12T01:54:02.814Z,62.65
2023-10-12T01:56:29.010Z,62.64
2023-10-12T01:58:55.161Z,62.28
2023-10-12T02:01:21.852Z,62.94
2023-10-12T02:03:49.304Z,64.33
2023-10-12T02:06:16.184Z,64.28
2023-10-12T02:08:42.336Z,64.52
2023-10-12T02:11:08.479Z,64.62
2023-10-12T02:13:34.643Z,64.79
2023-10-12T02:16:01.106Z,65.93
2023-10-12T02:18:27.423Z,65.17
2023-10-12T02:20:53.587Z,66.66
2023-10-12T02:23:19.743Z,66.84
2023-10-12T02:25:45.923Z,66.68
2023-10-12T02:28:12.097Z,67.74
2023-10-12T02:30:38.265Z,67.83
2023-10-12T02:33:04.496Z,68.20
2023-10-12T02:35:31.693Z,69.38
2023-10-12T02:37:57.870Z,70.58
2023-10-12T02:40:24.035Z,70.99
2023-10-12T02:42:50.223Z,71.19
2023-10-12T02:45:16.380Z,71.67
2023-10-12T02:47:42.757Z,71.04
2023-10-12T02:50:09.078Z,72.57
2023-10-12T02:52:35.258Z,73.02
2023-10-12T02:55:01.487Z,72.69
2023-10-12T02:57:27.673Z,73.51
2023-10-12T02:59:54.948Z,73.07
2023-10-12T03:02:21.193Z,74.41
2023-10-12T03:04:47.579Z,73.72
2023-10-12T03:07:13.798Z,74.41
2023-10-12T03:09:39.991Z,74.52
2023-10-12T03:12:06.170Z,74.40
2023-10-12T03:14:32.629Z,75.00
2023-10-12T03:16:58.976Z,74.50
2023-10-12T03:19:25.222Z,74.99
2023-10-12T03:21:51.580Z,74.99
2023-10-12T03:24:18.099Z,75.12
2023-10-12T03:26:44.568Z,75.16
2023-10-12T03:29:10.784Z,75.44
2023-10-12T03:31:37.021Z,76.02
2023-10-12T03:34:03.347Z,75.85
2023-10-12T03:36:29.551Z,75.84
2023-10-12T03:38:55.727Z,75.85
2023-10-12T03:41:21.910Z,75.50
2023-10-12T03:43:48.060Z,75.69
2023-10-12T03:46:14.359Z,75.38
2023-10-12T03:48:40.752Z,75.58
2023-10-12T03:51:06.998Z,75.43
2023-10-12T03:53:33.170Z,75.70
2023-10-12T03:55:59.330Z,76.14
2023-10-12T03:58:25.570Z,76.56
2023-10-12T04:00:51.947Z,76.48
2023-10-12T04:03:18.241Z,77.11
2023-10-12T04:08:28.335Z,76.42
2023-10-12T04:10:54.865Z,77.04
2023-10-12T04:13:21.145Z,76.38
2023-10-12T04:15:48.419Z,76.79
2023-10-12T04:18:14.585Z,76.62
2023-10-12T04:20:42.957Z,76.98
2023-10-12T04:23:09.119Z,77.16
2023-10-12T04:25:35.276Z,76.83
2023-10-12T04:28:01.463Z,77.44
2023-10-12T04:30:27.697Z,77.82
2023-10-12T04:32:54.018Z,77.73
2023-10-12T04:35:20.288Z,77.67
2023-10-12T04:37:46.501Z,78.05
2023-10-12T04:40:12.639Z,78.29
2023-10-12T04:42:38.877Z,78.04
2023-10-12T04:45:05.073Z,78.04
2023-10-12T04:47:31.233Z,77.63
2023-10-12T04:49:58.860Z,77.85
2023-10-12T04:52:25.325Z,77.77
2023-10-12T04:54:51.530Z,78.41
2023-10-12T04:57:17.751Z,77.82
2023-10-12T04:59:43.913Z,78.34
2023-10-12T05:02:10.056Z,77.82
2023-10-12T05:04:36.632Z,78.07
2023-10-12T05:07:03.005Z,79.08
2023-10-12T05:09:29.289Z,78.51
2023-10-12T05:11:55.470Z,78.88
2023-10-12T05:14:21.627Z,78.62
2023-10-12T05:16:47.860Z,78.90
2023-10-12T05:19:15.379Z,78.60
2023-10-12T05:21:41.662Z,78.60
2023-10-12T05:24:07.920Z,78.81
2023-10-12T05:26:34.082Z,78.34
2023-10-12T05:29:00.286Z,78.70
2023-10-12T05:31:26.480Z,78.94
2023-10-12T05:33:52.810Z,79.01
2023-10-12T05:36:20.023Z,78.87
2023-10-12T05:38:46.317Z,79.25
2023-10-12T05:41:12.516Z,78.91
2023-10-12T05:43:38.708Z,78.66
2023-10-12T05:46:05.043Z,78.91
2023-10-12T05:48:32.409Z,78.46
2023-10-12T05:50:58.591Z,79.02
2023-10-12T05:53:24.749Z,79.02
2023-10-12T05:55:50.989Z,78.58
2023-10-12T05:58:17.124Z,78.40
2023-10-12T06:00:43.408Z,78.63
2023-10-12T06:03:09.624Z,78.68
2023-10-12T06:05:37.805Z,79.27
2023-10-12T06:08:03.984Z,79.33
2023-10-12T06:10:30.152Z,78.34
2023-10-12T06:12:56.396Z,78.89
2023-10-12T06:15:22.747Z,78.45
2023-10-12T06:17:49.005Z,78.59
2023-10-12T06:20:16.240Z,78.50
2023-10-12T06:22:42.420Z,78.09
2023-10-12T06:25:08.661Z,78.85
2023-10-12T06:27:34.916Z,79.00
2023-10-12T06:30:01.098Z,78.48
2023-10-12T06:32:27.337Z,77.97
2023-10-12T06:34:53.637Z,79.35
2023-10-12T06:37:19.831Z,78.79
2023-10-12T06:39:46.006Z,78.50
2023-10-12T06:42:12.187Z,78.72
2023-10-12T06:44:38.336Z,79.12
2023-10-12T06:47:04.496Z,79.05
2023-10-12T06:49:32.731Z,79.02
2023-10-12T06:52:02.232Z,79.40
2023-10-12T06:54:28.589Z,79.47
2023-10-12T06:56:54.750Z,79.59
2023-10-12T06:59:21.023Z,79.42
2023-10-12T07:01:47.365Z,79.43
2023-10-12T07:04:14.797Z,79.38
2023-10-12T07:06:40.990Z,78.87
2023-10-12T07:09:07.154Z,78.43
2023-10-12T07:11:34.505Z,79.14
2023-10-12T07:14:00.710Z,78.87
2023-10-12T07:16:27.016Z,78.47
2023-10-12T07:19:08.783Z,78.74
2023-10-12T07:21:40.789Z,78.73
2023-10-12T07:24:07.024Z,78.85
2023-10-12T07:26:33.185Z,78.05
2023-10-12T07:28:59.562Z,78.51
2023-10-12T07:31:25.736Z,78.75
2023-10-12T07:33:52.068Z,78.68
2023-10-12T07:36:18.309Z,78.74
2023-10-12T07:38:44.485Z,78.26
2023-10-12T07:41:10.921Z,78.98
2023-10-12T07:43:37.075Z,78.40
2023-10-12T07:46:04.431Z,78.38
2023-10-12T07:48:30.673Z,78.13
2023-10-12T07:50:56.839Z,78.50
2023-10-12T07:53:23.030Z,78.35
2023-10-12T07:55:49.381Z,78.29
2023-10-12T07:58:15.665Z,77.99
2023-10-12T08:00:42.080Z,77.77
2023-10-12T08:03:09.319Z,78.10
2023-10-12T08:05:35.760Z,78.15
2023-10-12T08:08:01.934Z,77.73
2023-10-12T08:10:28.130Z,77.74
2023-10-12T08:12:54.298Z,77.79
2023-10-12T08:15:20.520Z,77.57
2023-10-12T08:17:46.741Z,77.62
2023-10-12T08:20:13.016Z,77.54
2023-10-12T08:22:39.273Z,78.03
2023-10-12T08:25:05.786Z,77.33
2023-10-12T08:27:32.154Z,77.53
2023-10-12T08:29:58.539Z,77.91
2023-10-12T08:32:24.692Z,77.16
2023-10-12T08:34:52.173Z,77.46
2023-10-12T08:37:18.436Z,77.10
2023-10-12T08:39:47.304Z,76.62
2023-10-12T08:42:14.105Z,77.22
2023-10-12T08:44:40.269Z,76.69
2023-10-12T08:47:06.422Z,76.79
2023-10-12T08:49:32.802Z,76.15
2023-10-12T08:51:58.992Z,76.53
2023-10-12T08:54:25.181Z,76.07
2023-10-12T08:56:51.681Z,76.53
2023-10-12T08:59:17.853Z,76.42
2023-10-12T09:01:44.098Z,77.13
2023-10-12T09:04:10.710Z,75.73
2023-10-12T09:06:36.946Z,75.72
2023-10-12T09:09:03.185Z,75.57
2023-10-12T09:11:29.344Z,75.69
2023-10-12T09:13:55.538Z,76.07
2023-10-12T09:16:21.940Z,75.79
2023-10-12T09:18:48.600Z,75.21
2023-10-12T09:21:15.181Z,75.42
2023-10-12T09:23:41.386Z,76.16
2023-10-12T09:26:07.690Z,76.11
2023-10-12T09:28:33.855Z,75.13
2023-10-12T09:31:00.119Z,75.54
2023-10-12T09:33:26.753Z,74.49
2023-10-12T09:35:52.931Z,74.93
2023-10-12T09:38:19.226Z,74.04
2023-10-12T09:40:45.552Z,75.07
2023-10-12T09:43:11.929Z,74.99
2023-10-12T09:45:38.168Z,75.25
2023-10-12T09:48:04.466Z,75.01
2023-10-12T09:50:31.067Z,75.12
2023-10-12T09:52:57.306Z,74.51
2023-10-12T09:55:24.557Z,74.66
2023-10-12T09:57:50.997Z,74.79
2023-10-12T10:00:17.193Z,73.25
2023-10-12T10:02:43.573Z,73.70
2023-10-12T10:05:09.882Z,73.02
2023-10-12T10:07:36.637Z,72.53
2023-10-12T10:10:02.869Z,72.40
2023-10-12T10:12:29.119Z,72.10
2023-10-12T10:14:55.652Z,72.70
2023-10-12T10:17:21.886Z,71.59
2023-10-12T10:19:49.507Z,72.62
2023-10-12T10:22:15.931Z,72.27
2023-10-12T10:24:42.140Z,72.42
2023-10-12T10:27:08.325Z,71.88
2023-10-12T10:29:34.544Z,71.42
2023-10-12T10:32:00.775Z,71.85
2023-10-12T10:34:27.011Z,72.17
2023-10-12T10:36:53.239Z,72.64
2023-10-12T10:39:19.687Z,72.03
2023-10-12T10:41:45.867Z,72.02
2023-10-12T10:44:12.150Z,71.64
2023-10-12T10:46:38.614Z,71.78
2023-10-12T10:49:29.809Z,71.84
2023-10-12T10:51:51.022Z,71.03
2023-10-12T10:54:17.295Z,70.88
2023-10-12T10:56:43.614Z,71.31
2023-10-12T10:59:11.661Z,72.55
2023-10-12T11:01:37.972Z,72.43
2023-10-12T11:04:04.255Z,71.94
2023-10-12T11:06:30.486Z,71.43
2023-10-12T11:08:56.650Z,72.22
2023-10-12T11:11:22.852Z,72.27
2023-10-12T11:13:49.032Z,71.64
2023-10-12T11:16:15.377Z,70.85
2023-10-12T11:18:42.074Z,70.79
2023-10-12T11:21:10.800Z,70.58
2023-10-12T11:23:37.047Z,70.52
2023-10-12T11:26:03.486Z,70.55
2023-10-12T11:28:29.673Z,71.23
2023-10-12T11:30:57.743Z,70.81
2023-10-12T11:33:24.152Z,71.31
2023-10-12T11:35:51.175Z,71.27
2023-10-12T11:38:17.517Z,71.10
2023-10-12T11:40:43.746Z,71.54
2023-10-12T11:43:09.984Z,71.51
2023-10-12T11:45:37.765Z,70.24
2023-10-12T11:48:04.225Z,70.47
2023-10-12T11:50:30.564Z,70.44
2023-10-12T11:52:57.027Z,70.97
2023-10-12T11:55:23.439Z,69.60
2023-10-12T11:57:54.101Z,70.01
2023-10-12T12:00:20.284Z,69.38
2023-10-12T12:02:46.489Z,70.28
2023-10-12T12:05:12.728Z,70.09
2023-10-12T12:07:39.430Z,69.87
2023-10-12T12:10:05.597Z,70.42
2023-10-12T12:12:31.843Z,69.46
2023-10-12T12:14:58.011Z,70.63
2023-10-12T12:17:24.271Z,70.19
2023-10-12T12:19:50.537Z,70.56
2023-10-12T12:22:16.817Z,70.28
2023-10-12T12:24:44.885Z,71.46
2023-10-12T12:27:11.079Z,71.30
2023-10-12T12:29:55.917Z,70.18
2023-10-12T12:32:23.405Z,71.06
2023-10-12T12:34:49.706Z,70.44
2023-10-12T12:37:16.010Z,69.36
2023-10-12T12:39:42.291Z,69.43
2023-10-12T12:42:08.477Z,70.20
2023-10-12T12:44:34.789Z,69.96
2023-10-12T12:47:01.317Z,69.57
2023-10-12T12:49:27.654Z,69.61
2023-10-12T12:51:53.863Z,69.32
2023-10-12T12:54:20.475Z,68.80
2023-10-12T12:56:48.316Z,68.52
2023-10-12T12:59:14.507Z,68.17
2023-10-12T13:01:42.452Z,67.72
2023-10-12T13:04:08.775Z,68.00
2023-10-12T13:06:35.017Z,67.42
2023-10-12T13:09:01.491Z,67.28
2023-10-12T13:11:27.674Z,68.34
2023-10-12T13:13:54.097Z,67.85
2023-10-12T13:16:20.372Z,67.93
2023-10-12T13:18:46.606Z,67.71
2023-10-12T13:21:12.801Z,68.50
2023-10-12T13:23:39.103Z,67.90
2023-10-12T13:26:05.380Z,68.22
2023-10-12T13:28:31.583Z,68.40
2023-10-12T13:30:57.772Z,67.82
2023-10-12T13:33:23.920Z,67.75
2023-10-12T13:35:50.913Z,68.52
2023-10-12T13:38:18.441Z,68.61
2023-10-12T13:40:44.617Z,68.92
2023-10-12T13:43:10.864Z,68.43
2023-10-12T13:45:37.076Z,68.55
2023-10-12T13:48:03.272Z,68.96
2023-10-12T13:50:29.712Z,68.82
2023-10-12T13:52:56.092Z,68.78
2023-10-12T13:55:22.384Z,69.07
2023-10-12T13:57:48.685Z,69.24
2023-10-12T14:00:14.915Z,69.77
2023-10-12T14:02:41.296Z,70.04
2023-10-12T14:05:07.576Z,70.66
2023-10-12T14:07:33.816Z,69.99
2023-10-12T14:09:59.991Z,70.34
2023-10-12T14:12:26.339Z,69.78
2023-10-12T14:14:52.482Z,70.27
2023-10-12T14:17:18.687Z,70.18
2023-10-12T14:19:44.960Z,70.55
2023-10-12T14:22:11.256Z,70.58
2023-10-12T14:24:37.428Z,70.54
2023-10-12T14:27:04.886Z,70.51
2023-10-12T14:29:31.268Z,70.87
2023-10-12T14:31:57.617Z,71.24
2023-10-12T14:34:24.009Z,70.30
2023-10-12T14:36:51.750Z,71.50
2023-10-12T14:39:18.193Z,72.21
2023-10-12T14:41:44.592Z,71.91
2023-10-12T14:44:10.937Z,72.10
2023-10-12T14:46:37.364Z,72.46
2023-10-12T14:49:03.687Z,73.45
2023-10-12T14:51:29.935Z,73.08
2023-10-12T14:53:56.071Z,72.55
2023-10-12T14:56:22.284Z,72.34
2023-10-12T14:58:48.470Z,72.94
2023-10-12T15:01:14.752Z,73.13
2023-10-12T15:03:41.285Z,73.22
2023-10-12T15:06:07.491Z,72.39
2023-10-12T15:08:33.857Z,72.47
2023-10-12T15:11:00.065Z,72.64
2023-10-12T15:13:26.362Z,73.40
2023-10-12T15:15:52.684Z,73.58
2023-10-12T15:18:19.292Z,73.86
2023-10-12T15:20:45.465Z,73.85
2023-10-12T15:23:11.629Z,73.72
2023-10-12T15:25:37.809Z,73.55
2023-10-12T15:28:04.129Z,73.83
2023-10-12T15:30:30.363Z,74.55
2023-10-12T15:32:56.691Z,74.52
2023-10-12T15:35:22.890Z,74.25
2023-10-12T15:37:49.094Z,74.73
2023-10-12T15:40:15.591Z,74.95
2023-10-12T15:42:42.252Z,75.64
2023-10-12T15:45:08.503Z,75.01
2023-10-12T15:47:34.768Z,75.00
2023-10-12T15:50:00.936Z,75.23
2023-10-12T15:52:27.227Z,74.42
2023-10-12T15:54:53.423Z,74.87
2023-10-12T15:57:19.830Z,75.28
2023-10-12T15:59:45.983Z,75.64
2023-10-12T16:02:13.446Z,75.20
2023-10-12T16:04:41.824Z,75.60
2023-10-12T16:07:09.662Z,75.61
2023-10-12T16:09:35.865Z,75.81
2023-10-12T16:12:02.050Z,75.16
2023-10-12T16:14:28.220Z,75.32
2023-10-12T16:16:54.797Z,75.51
2023-10-12T16:19:21.182Z,75.61
2023-10-12T16:21:49.284Z,75.90
2023-10-12T16:24:15.495Z,75.37
2023-10-12T16:26:41.736Z,75.52
2023-10-12T16:29:07.916Z,75.31
2023-10-12T16:31:35.645Z,75.71
2023-10-12T16:34:02.042Z,76.12
2023-10-12T16:36:29.352Z,75.66
2023-10-12T16:38:55.602Z,76.07
2023-10-12T16:41:21.904Z,75.76
2023-10-12T16:43:48.345Z,75.79
2023-10-12T16:46:14.630Z,75.25
2023-10-12T16:48:42.706Z,76.04
2023-10-12T16:51:08.946Z,76.50
2023-10-12T16:53:35.158Z,77.17
2023-10-12T16:56:01.449Z,77.15
2023-10-12T16:58:29.072Z,77.09
2023-10-12T17:00:55.689Z,77.15
2023-10-12T17:03:22.078Z,77.84
2023-10-12T17:05:48.326Z,77.60
2023-10-12T17:08:15.717Z,77.89
2023-10-12T17:10:42.094Z,77.71
2023-10-12T17:13:08.322Z,78.15
2023-10-12T17:15:34.551Z,77.74
2023-10-12T17:18:00.731Z,78.05
2023-10-12T17:20:29.067Z,77.37
2023-10-12T17:22:55.236Z,78.09
2023-10-12T17:25:21.441Z,78.65
2023-10-12T17:27:47.717Z,78.67
2023-10-12T17:30:13.897Z,79.01
2023-10-12T17:32:40.110Z,78.97
2023-10-12T17:35:06.326Z,79.52
2023-10-12T17:37:32.599Z,79.00
2023-10-12T17:39:58.905Z,79.40
2023-10-12T17:42:25.112Z,79.77
2023-10-12T17:44:53.746Z,79.95
2023-10-12T17:47:19.980Z,80.67
2023-10-12T17:49:46.480Z,79.90
2023-10-12T17:52:12.667Z,80.21
2023-10-12T17:54:38.849Z,80.04
2023-10-12T17:57:05.080Z,80.34
2023-10-12T17:59:31.277Z,79.83
2023-10-12T18:01:57.522Z,80.44
2023-10-12T18:04:26.120Z,80.58
2023-10-12T18:06:52.924Z,80.60
2023-10-12T18:09:19.320Z,81.17
2023-10-12T18:11:45.719Z,81.44
2023-10-12T18:14:12.043Z,82.16
2023-10-12T18:16:38.301Z,81.79
2023-10-12T18:19:04.525Z,81.60
2023-10-12T18:21:32.340Z,81.65
2023-10-12T18:23:58.492Z,81.96
2023-10-12T18:26:24.694Z,81.09
2023-10-12T18:28:51.138Z,81.31
2023-10-12T18:31:17.378Z,81.64
2023-10-12T18:33:43.714Z,81.77
2023-10-12T18:36:10.674Z,81.27
2023-10-12T18:38:36.890Z,81.87
2023-10-12T18:41:03.132Z,81.81
2023-10-12T18:43:29.539Z,82.14
2023-10-12T18:45:55.807Z,82.17
2023-10-12T18:48:22.053Z,82.16
2023-10-12T18:50:48.303Z,83.13
2023-10-12T18:53:14.458Z,82.38
2023-10-12T18:55:40.688Z,82.39
2023-10-12T18:58:06.911Z,81.83
2023-10-12T19:00:33.130Z,82.43
2023-10-12T19:02:59.379Z,81.88
2023-10-12T19:05:25.681Z,82.44
2023-10-12T19:07:52.160Z,81.97
2023-10-12T19:10:18.376Z,82.35
2023-10-12T19:12:44.568Z,82.06
2023-10-12T19:15:10.885Z,81.90
2023-10-12T19:17:37.138Z,82.00
2023-10-12T19:20:03.393Z,81.66
2023-10-12T19:22:29.627Z,81.74
2023-10-12T19:24:55.814Z,82.69
2023-10-12T19:27:22.130Z,82.85
2023-10-12T19:29:48.308Z,82.43
2023-10-12T19:32:14.454Z,82.71
2023-10-12T19:34:40.674Z,82.46
2023-10-12T19:37:06.896Z,82.39
2023-10-12T19:39:33.080Z,82.56
2023-10-12T19:41:59.341Z,82.25
2023-10-12T19:44:25.529Z,81.97
2023-10-12T19:46:51.826Z,81.46
2023-10-12T19:49:18.217Z,81.96
2023-10-12T19:51:44.422Z,81.72
2023-10-12T19:54:10.599Z,82.32
2023-10-12T19:56:36.818Z,81.57
2023-10-12T19:59:03.055Z,81.88
2023-10-12T20:01:30.428Z,82.10
2023-10-12T20:03:56.827Z,82.04
2023-10-12T20:06:23.314Z,81.30
2023-10-12T20:08:50.182Z,81.72
2023-10-12T20:11:16.706Z,81.79
2023-10-12T20:13:42.981Z,81.79
2023-10-12T20:16:09.271Z,81.38
2023-10-12T20:18:35.518Z,81.56
2023-10-12T20:21:01.691Z,81.78
2023-10-12T20:23:27.877Z,81.51
2023-10-12T20:25:54.159Z,81.69
2023-10-12T20:28:20.418Z,81.24
2023-10-12T20:30:46.859Z,81.69
2023-10-12T20:33:13.179Z,82.02
2023-10-12T20:35:39.313Z,82.01
2023-10-12T20:38:05.557Z,81.84
2023-10-12T20:40:31.757Z,82.05
2023-10-12T20:42:58.062Z,82.21
2023-10-12T20:45:24.239Z,82.14
2023-10-12T20:47:50.442Z,81.86
2023-10-12T20:50:16.640Z,82.02
2023-10-12T20:52:42.884Z,82.21
2023-10-12T20:55:09.070Z,82.36
2023-10-12T20:57:35.298Z,81.91
2023-10-12T21:00:01.569Z,81.32
2023-10-12T21:02:27.838Z,81.88
2023-10-12T21:04:54.161Z,81.81
2023-10-12T21:07:20.405Z,81.79
2023-10-12T21:09:46.672Z,81.80
2023-10-12T21:12:12.943Z,81.43
2023-10-12T21:14:39.089Z,81.67
2023-10-12T21:17:05.612Z,81.78
2023-10-12T21:19:32.235Z,81.79
2023-10-12T21:21:58.449Z,81.70
2023-10-12T21:24:24.619Z,82.04
2023-10-12T21:26:50.891Z,80.72
2023-10-12T21:29:17.026Z,81.13
2023-10-12T21:31:44.452Z,81.43
2023-10-12T21:34:10.799Z,81.00
2023-10-12T21:36:36.959Z,80.83
2023-10-12T21:39:03.135Z,80.82
2023-10-12T21:41:29.353Z,81.06
2023-10-12T21:43:55.539Z,81.27
2023-10-12T21:46:21.744Z,80.82
2023-10-12T21:48:47.984Z,81.66
2023-10-12T21:51:14.158Z,81.36
2023-10-12T21:53:40.319Z,80.54
2023-10-12T21:56:06.560Z,81.05
2023-10-12T21:58:32.836Z,80.87
2023-10-12T22:00:59.057Z,81.24
2023-10-12T22:03:25.373Z,80.83
2023-10-12T22:05:51.595Z,80.99
2023-10-12T22:08:17.781Z,80.94
2023-10-12T22:10:43.941Z,81.04
2023-10-12T22:13:10.235Z,80.13
2023-10-12T22:15:36.747Z,80.50
2023-10-12T22:18:02.959Z,80.69
2023-10-12T22:20:29.185Z,80.68
2023-10-12T22:22:55.338Z,81.00
2023-10-12T22:25:21.542Z,80.53
2023-10-12T22:27:47.872Z,80.90
2023-10-12T22:30:14.205Z,80.47
2023-10-12T22:32:40.481Z,80.41
2023-10-12T22:35:06.752Z,80.10
2023-10-12T22:37:32.975Z,79.60
2023-10-12T22:39:59.256Z,80.86
2023-10-12T22:42:25.604Z,80.67
2023-10-12T22:44:51.862Z,80.86
2023-10-12T22:47:18.029Z,80.90
2023-10-12T22:49:44.232Z,81.38
2023-10-12T22:52:10.450Z,80.72
2023-10-12T22:54:36.628Z,80.77
2023-10-12T22:57:02.882Z,80.79
2023-10-12T22:59:29.021Z,80.25
2023-10-12T23:01:55.254Z,80.74
2023-10-12T23:04:21.559Z,80.69
2023-10-12T23:06:47.752Z,79.98
2023-10-12T23:09:13.909Z,81.00
2023-10-12T23:11:40.166Z,81.11
2023-10-12T23:14:06.317Z,80.39
2023-10-12T23:16:32.628Z,80.47
2023-10-12T23:18:58.918Z,80.68
2023-10-12T23:21:25.137Z,79.95
2023-10-12T23:23:51.297Z,79.44
2023-10-12T23:26:17.557Z,79.91
2023-10-12T23:28:43.866Z,80.23
2023-10-12T23:31:10.053Z,79.38
2023-10-12T23:33:36.243Z,79.42
2023-10-12T23:36:02.451Z,80.45
2023-10-12T23:38:28.605Z,79.89
2023-10-12T23:40:54.749Z,80.27
2023-10-12T23:43:21.010Z,80.10
2023-10-12T23:45:47.197Z,80.01
2023-10-12T23:48:13.433Z,79.62
2023-10-12T23:50:39.639Z,79.77
2023-10-12T23:53:05.781Z,80.13
2023-10-12T23:55:32.038Z,80.38
2023-10-12T23:57:58.307Z,80.13
